createdAt,value
2019-04-14T00:01:54.422Z,5.90
2019-04-14T00:04:31.309Z,5.90
2019-04-14T00:07:03.772Z,5.70
2019-04-14T00:09:36.058Z,5.70
2019-04-14T00:12:10.537Z,5.90
2019-04-14T00:14:42.879Z,6.00
2019-04-14T00:17:15.490Z,5.80
2019-04-14T00:19:47.987Z,5.90
2019-04-14T00:22:20.595Z,5.90
2019-04-14T00:24:53.236Z,5.70
2019-04-14T00:27:25.952Z,5.70
2019-04-14T00:29:58.997Z,5.60
2019-04-14T00:32:46.481Z,5.50
2019-04-14T00:35:40.659Z,5.60
2019-04-14T00:38:17.427Z,5.70
2019-04-14T00:41:15.948Z,5.70
2019-04-14T00:43:59.155Z,5.70
2019-04-14T00:46:49.510Z,5.60
2019-04-14T00:49:22.146Z,5.50
2019-04-14T00:51:55.002Z,5.60
2019-04-14T00:54:28.239Z,5.60
2019-04-14T00:57:00.878Z,5.60
2019-04-14T00:59:33.401Z,5.60
2019-04-14T01:02:05.801Z,5.70
2019-04-14T01:04:38.304Z,5.70
2019-04-14T01:07:10.765Z,5.50
2019-04-14T01:09:44.238Z,5.60
2019-04-14T01:12:17.093Z,5.60
2019-04-14T01:14:49.621Z,5.70
2019-04-14T01:17:22.075Z,5.70
2019-04-14T01:19:54.886Z,5.60
2019-04-14T01:22:27.161Z,5.60
2019-04-14T01:24:59.966Z,5.60
2019-04-14T01:27:32.649Z,5.60
2019-04-14T01:30:06.640Z,5.50
2019-04-14T01:32:39.413Z,5.60
2019-04-14T01:35:11.760Z,5.50
2019-04-14T01:37:44.383Z,5.50
2019-04-14T01:40:18.430Z,5.40
2019-04-14T01:42:51.151Z,5.40
2019-04-14T01:45:23.712Z,5.50
2019-04-14T01:47:57.402Z,5.40
2019-04-14T01:50:51.824Z,5.40
2019-04-14T01:53:43.146Z,5.30
2019-04-14T01:56:36.234Z,5.40
2019-04-14T01:59:08.751Z,5.40
2019-04-14T02:01:41.761Z,5.40
2019-04-14T02:04:13.992Z,5.30
2019-04-14T02:06:46.307Z,5.30
2019-04-14T02:09:18.718Z,5.40
2019-04-14T02:11:51.057Z,5.30
2019-04-14T02:14:23.381Z,5.30
2019-04-14T02:16:58.860Z,5.20
2019-04-14T02:19:30.641Z,5.20
2019-04-14T02:22:03.354Z,5.10
2019-04-14T02:24:35.541Z,5.20
2019-04-14T02:27:07.793Z,5.10
2019-04-14T02:29:40.769Z,5.10
2019-04-14T02:32:42.437Z,5.10
2019-04-14T02:35:20.914Z,5.10
2019-04-14T02:40:34.868Z,5.10
2019-04-14T02:43:17.613Z,5.00
2019-04-14T02:45:35.357Z,4.90
2019-04-14T02:53:18.436Z,4.90
2019-04-14T02:55:48.977Z,4.80
2019-04-14T02:58:26.475Z,4.70
2019-04-14T03:00:58.364Z,4.80
2019-04-14T03:08:45.350Z,4.70
2019-04-14T03:11:09.611Z,4.60
2019-04-14T03:13:44.980Z,4.70
2019-04-14T03:16:23.403Z,4.70
2019-04-14T03:19:07.398Z,4.60
2019-04-14T03:22:12.617Z,4.70
2019-04-14T03:24:37.573Z,4.70
2019-04-14T03:30:46.139Z,4.60
2019-04-14T03:33:24.192Z,4.70
2019-04-14T03:38:15.884Z,4.70
2019-04-14T03:40:45.839Z,4.80
2019-04-14T03:43:19.663Z,4.90
2019-04-14T03:45:53.873Z,5.00
2019-04-14T03:48:48.606Z,5.00
2019-04-14T03:51:06.762Z,4.80
2019-04-14T03:53:44.059Z,4.80
2019-04-14T03:56:17.687Z,4.80
2019-04-14T03:58:51.046Z,4.90
2019-04-14T04:01:23.743Z,4.70
2019-04-14T04:03:56.431Z,4.60
2019-04-14T04:06:29.246Z,4.70
2019-04-14T04:09:01.993Z,4.70
2019-04-14T04:11:34.566Z,4.70
2019-04-14T04:14:07.476Z,4.50
2019-04-14T04:17:05.777Z,4.50
2019-04-14T04:19:43.277Z,4.60
2019-04-14T04:22:34.647Z,4.60
2019-04-14T04:25:31.052Z,4.70
2019-04-14T04:28:25.923Z,4.70
2019-04-14T04:31:20.565Z,4.70
2019-04-14T04:34:03.332Z,4.70
2019-04-14T04:36:40.264Z,4.60
2019-04-14T04:39:21.677Z,4.70
2019-04-14T04:41:53.872Z,4.60
2019-04-14T04:44:27.030Z,4.60
2019-04-14T04:46:59.234Z,4.60
2019-04-14T04:49:32.909Z,4.50
2019-04-14T04:52:06.251Z,4.60
2019-04-14T04:54:38.785Z,4.70
2019-04-14T04:57:11.293Z,4.80
2019-04-14T04:59:43.405Z,4.90
2019-04-14T05:02:15.886Z,4.80
2019-04-14T05:04:48.375Z,4.60
2019-04-14T05:07:21.304Z,4.60
2019-04-14T05:10:13.254Z,4.70
2019-04-14T05:13:03.621Z,4.60
2019-04-14T05:15:57.468Z,4.70
2019-04-14T05:18:29.802Z,4.70
2019-04-14T05:21:02.146Z,4.70
2019-04-14T05:23:34.454Z,4.80
2019-04-14T05:26:07.083Z,4.90
2019-04-14T05:28:39.633Z,4.90
2019-04-14T05:31:12.193Z,4.90
2019-04-14T05:33:44.753Z,4.80
2019-04-14T05:36:17.152Z,4.80
2019-04-14T05:38:49.630Z,4.80
2019-04-14T05:41:22.302Z,4.90
2019-04-14T05:43:58.152Z,4.90
2019-04-14T05:46:29.531Z,5.00
2019-04-14T05:49:02.208Z,4.80
2019-04-14T05:51:35.114Z,4.90
2019-04-14T05:54:07.802Z,4.80
2019-04-14T05:56:40.729Z,4.80
2019-04-14T05:59:13.482Z,4.90
2019-04-14T06:01:46.525Z,4.80
2019-04-14T06:04:19.940Z,4.90
2019-04-14T06:06:52.577Z,4.70
2019-04-14T06:09:25.037Z,4.60
2019-04-14T06:11:57.382Z,4.60
2019-04-14T06:14:29.690Z,4.70
2019-04-14T06:17:02.018Z,4.60
2019-04-14T06:19:37.890Z,4.70
2019-04-14T06:22:08.337Z,4.80
2019-04-14T06:24:40.552Z,4.80
2019-04-14T06:27:12.880Z,4.70
2019-04-14T06:29:45.471Z,4.80
2019-04-14T06:32:27.266Z,4.80
2019-04-14T06:35:12.296Z,4.70
2019-04-14T06:37:54.250Z,4.70
2019-04-14T06:40:29.105Z,4.70
2019-04-14T06:43:01.860Z,4.70
2019-04-14T06:45:34.362Z,4.80
2019-04-14T06:48:06.931Z,4.90
2019-04-14T06:50:39.842Z,4.90
2019-04-14T06:53:12.211Z,4.90
2019-04-14T06:55:44.499Z,4.90
2019-04-14T06:58:16.589Z,4.90
2019-04-14T07:00:49.187Z,4.90
2019-04-14T07:03:21.720Z,4.80
2019-04-14T07:05:53.999Z,5.00
2019-04-14T07:08:26.468Z,5.10
2019-04-14T07:10:58.998Z,5.00
2019-04-14T07:13:31.315Z,5.00
2019-04-14T07:16:03.812Z,5.10
2019-04-14T07:18:35.993Z,5.00
2019-04-14T07:21:08.514Z,5.00
2019-04-14T07:23:40.717Z,5.10
2019-04-14T07:26:13.126Z,5.10
2019-04-14T07:28:56.145Z,5.20
2019-04-14T07:31:44.960Z,5.20
2019-04-14T07:34:37.591Z,5.20
2019-04-14T07:37:28.383Z,5.40
2019-04-14T07:40:23.241Z,5.40
2019-04-14T07:43:06.091Z,5.40
2019-04-14T07:45:51.970Z,5.40
2019-04-14T07:48:42.467Z,5.30
2019-04-14T07:51:40.681Z,5.30
2019-04-14T07:54:18.973Z,5.30
2019-04-14T07:57:19.301Z,5.40
2019-04-14T07:59:56.515Z,5.40
2019-04-14T08:02:34.609Z,5.40
2019-04-14T08:05:10.404Z,5.60
2019-04-14T08:07:43.348Z,5.60
2019-04-14T08:10:15.974Z,5.70
2019-04-14T08:12:48.368Z,5.70
2019-04-14T08:15:20.981Z,5.50
2019-04-14T08:17:53.503Z,5.70
2019-04-14T08:20:27.717Z,5.70
2019-04-14T08:23:00.224Z,5.70
2019-04-14T08:25:32.473Z,5.70
2019-04-14T08:28:04.764Z,5.70
2019-04-14T08:30:36.919Z,5.60
2019-04-14T08:33:09.360Z,5.70
2019-04-14T08:35:41.492Z,5.60
2019-04-14T08:38:14.067Z,5.70
2019-04-14T08:40:46.432Z,5.80
2019-04-14T08:43:29.134Z,5.80
2019-04-14T08:46:23.686Z,5.80
2019-04-14T08:49:01.136Z,5.90
2019-04-14T08:51:37.908Z,5.90
2019-04-14T08:54:27.308Z,5.80
2019-04-14T08:57:10.763Z,6.10
2019-04-14T08:59:58.400Z,6.20
2019-04-14T09:02:47.651Z,6.20
2019-04-14T09:05:38.137Z,6.20
2019-04-14T09:08:18.444Z,6.20
2019-04-14T09:10:55.022Z,6.20
2019-04-14T09:13:27.674Z,6.20
2019-04-14T09:16:00.077Z,6.20
2019-04-14T09:18:32.452Z,6.30
2019-04-14T09:21:04.844Z,6.50
2019-04-14T09:23:37.116Z,6.40
2019-04-14T09:26:09.638Z,6.30
2019-04-14T09:28:42.092Z,6.40
2019-04-14T09:31:14.515Z,6.60
2019-04-14T09:33:46.890Z,6.60
2019-04-14T09:36:20.549Z,6.60
2019-04-14T09:38:52.991Z,6.60
2019-04-14T09:41:25.283Z,6.50
2019-04-14T09:43:57.879Z,6.50
2019-04-14T09:46:30.491Z,6.40
2019-04-14T09:49:02.955Z,6.40
2019-04-14T09:51:35.039Z,6.30
2019-04-14T09:54:07.153Z,6.50
2019-04-14T09:56:39.608Z,6.50
2019-04-14T09:59:11.715Z,6.70
2019-04-14T10:01:44.097Z,6.60
2019-04-14T10:04:16.826Z,6.40
2019-04-14T10:06:49.175Z,6.40
2019-04-14T10:09:21.458Z,6.40
2019-04-14T10:11:56.450Z,6.50
2019-04-14T10:14:27.847Z,6.60
2019-04-14T10:17:01.513Z,6.50
2019-04-14T10:19:33.918Z,6.50
2019-04-14T10:22:06.673Z,6.60
2019-04-14T10:24:38.922Z,6.60
2019-04-14T10:27:11.265Z,6.60
2019-04-14T10:29:43.617Z,6.50
2019-04-14T10:32:15.856Z,6.60
2019-04-14T10:34:48.837Z,6.60
2019-04-14T10:37:21.162Z,6.70
2019-04-14T10:39:53.404Z,6.80
2019-04-14T10:42:25.760Z,6.70
2019-04-14T10:44:58.238Z,6.80
2019-04-14T10:47:30.435Z,6.90
2019-04-14T10:50:03.060Z,6.80
2019-04-14T10:52:35.559Z,7.00
2019-04-14T10:55:08.184Z,6.90
2019-04-14T10:57:40.654Z,7.00
2019-04-14T11:00:16.087Z,7.00
2019-04-14T11:02:49.569Z,7.20
2019-04-14T11:05:22.881Z,7.10
2019-04-14T11:07:57.053Z,7.10
2019-04-14T11:10:29.331Z,7.10
2019-04-14T11:13:03.729Z,7.20
2019-04-14T11:15:39.112Z,7.20
2019-04-14T11:18:11.770Z,7.20
2019-04-14T11:20:43.976Z,7.10
2019-04-14T11:23:16.437Z,7.30
2019-04-14T11:25:49.046Z,7.40
2019-04-14T11:28:22.390Z,7.50
2019-04-14T11:30:57.424Z,7.50
2019-04-14T11:33:33.654Z,7.60
2019-04-14T11:36:25.876Z,7.60
2019-04-14T11:39:05.898Z,7.70
2019-04-14T11:41:40.110Z,7.80
2019-04-14T11:44:13.011Z,7.80
2019-04-14T11:46:45.590Z,8.00
2019-04-14T11:49:20.755Z,8.10
2019-04-14T11:51:55.448Z,8.20
2019-04-14T11:54:27.456Z,7.90
2019-04-14T11:57:00.369Z,7.90
2019-04-14T11:59:39.392Z,8.00
2019-04-14T12:02:18.835Z,8.20
2019-04-14T12:17:59.407Z,8.60
2019-04-14T12:20:31.595Z,8.80
2019-04-14T12:23:03.928Z,8.90
2019-04-14T12:25:36.630Z,8.90
2019-04-14T12:28:09.208Z,9.00
2019-04-14T12:30:42.196Z,9.20
2019-04-14T12:33:15.266Z,9.20
2019-04-14T12:35:47.520Z,9.20
2019-04-14T12:38:19.631Z,9.20
2019-04-14T12:40:52.826Z,9.20
2019-04-14T12:43:43.278Z,9.50
2019-04-14T12:46:43.603Z,9.40
2019-04-14T12:49:26.375Z,9.30
2019-04-14T12:52:21.388Z,9.20
2019-04-14T12:54:51.627Z,9.30
2019-04-14T12:57:41.954Z,9.40
2019-04-14T13:00:50.693Z,9.50
2019-04-14T13:03:24.376Z,9.50
2019-04-14T13:05:57.309Z,9.40
2019-04-14T13:08:29.625Z,9.50
2019-04-14T13:11:02.144Z,9.50
2019-04-14T13:13:34.851Z,9.60
2019-04-14T13:16:07.065Z,9.80
2019-04-14T13:18:39.309Z,9.70
2019-04-14T13:21:11.677Z,9.70
2019-04-14T13:23:44.186Z,9.90
2019-04-14T13:26:16.463Z,9.90
2019-04-14T13:28:48.866Z,10.10
2019-04-14T13:31:21.286Z,10.10
2019-04-14T13:33:54.966Z,10.10
2019-04-14T13:36:27.512Z,10.00
2019-04-14T13:38:59.907Z,10.00
2019-04-14T13:41:32.016Z,10.00
2019-04-14T13:44:04.610Z,10.20
2019-04-14T13:46:36.955Z,10.50
2019-04-14T13:49:09.233Z,10.50
2019-04-14T13:51:41.819Z,10.70
2019-04-14T13:54:14.227Z,10.70
2019-04-14T13:56:46.605Z,10.60
2019-04-14T13:59:19.272Z,10.70
2019-04-14T14:01:51.904Z,10.70
2019-04-14T14:04:24.506Z,10.60
2019-04-14T14:06:56.813Z,10.50
2019-04-14T14:09:29.300Z,10.40
2019-04-14T14:12:24.150Z,10.40
2019-04-14T14:15:24.759Z,10.40
2019-04-14T14:18:16.458Z,10.40
2019-04-14T14:21:23.681Z,10.60
2019-04-14T14:24:13.864Z,10.60
2019-04-14T14:26:47.278Z,10.60
2019-04-14T14:29:19.944Z,10.70
2019-04-14T14:31:53.187Z,10.80
2019-04-14T14:34:26.119Z,10.60
2019-04-14T14:36:58.314Z,10.40
2019-04-14T14:39:30.781Z,10.50
2019-04-14T14:42:03.166Z,10.60
2019-04-14T14:44:46.545Z,10.60
2019-04-14T14:47:22.548Z,10.70
2019-04-14T14:50:20.435Z,10.60
2019-04-14T14:52:52.693Z,10.70
2019-04-14T14:55:25.016Z,10.60
2019-04-14T14:57:57.171Z,10.70
2019-04-14T15:00:35.415Z,10.70
2019-04-14T15:03:08.104Z,10.80
2019-04-14T15:05:40.412Z,10.90
2019-04-14T15:08:12.796Z,11.10
2019-04-14T15:10:45.165Z,11.00
2019-04-14T15:13:17.627Z,10.80
2019-04-14T15:15:50.229Z,10.80
2019-04-14T15:18:22.638Z,10.90
2019-04-14T15:20:54.990Z,10.80
2019-04-14T15:23:27.365Z,10.80
2019-04-14T15:25:59.820Z,10.80
2019-04-14T15:28:32.471Z,10.70
2019-04-14T15:31:04.824Z,10.80
2019-04-14T15:33:37.214Z,10.80
2019-04-14T15:36:09.691Z,10.90
2019-04-14T15:38:42.120Z,10.90
2019-04-14T15:41:14.415Z,11.10
2019-04-14T15:43:47.075Z,11.20
2019-04-14T15:46:19.392Z,11.20
2019-04-14T15:48:51.682Z,11.10
2019-04-14T15:51:23.887Z,11.10
2019-04-14T15:53:56.390Z,11.10
2019-04-14T15:56:50.956Z,11.00
2019-04-14T15:59:42.855Z,11.00
2019-04-14T16:02:30.006Z,11.10
2019-04-14T16:05:12.643Z,11.10
2019-04-14T16:07:55.739Z,11.00
2019-04-14T16:10:47.789Z,10.90
2019-04-14T16:13:36.541Z,10.90
2019-04-14T16:16:40.472Z,11.00
2019-04-14T16:19:17.150Z,11.00
2019-04-14T16:21:49.622Z,11.00
2019-04-14T16:24:21.957Z,10.90
2019-04-14T16:27:12.536Z,11.00
2019-04-14T16:29:54.921Z,11.00
2019-04-14T16:32:35.258Z,10.90
2019-04-14T16:35:14.375Z,10.90
2019-04-14T16:37:47.227Z,10.90
2019-04-14T16:40:19.791Z,11.00
2019-04-14T16:42:52.023Z,11.00
2019-04-14T16:45:24.469Z,10.80
2019-04-14T16:47:56.687Z,10.90
2019-04-14T16:50:29.214Z,10.90
2019-04-14T16:53:20.413Z,10.80
2019-04-14T16:56:16.251Z,10.90
2019-04-14T16:58:54.467Z,10.80
2019-04-14T17:01:31.585Z,10.80
2019-04-14T17:04:03.981Z,10.70
2019-04-14T17:06:36.715Z,10.80
2019-04-14T17:09:09.173Z,10.90
2019-04-14T17:11:41.674Z,10.90
2019-04-14T17:14:29.205Z,10.70
2019-04-14T17:17:19.683Z,10.70
2019-04-14T17:20:17.987Z,10.80
2019-04-14T17:23:08.469Z,10.60
2019-04-14T17:25:52.563Z,10.60
2019-04-14T17:28:48.215Z,10.50
2019-04-14T17:31:55.224Z,10.50
2019-04-14T17:34:47.188Z,10.70
2019-04-14T17:37:39.320Z,10.50
2019-04-14T17:40:24.822Z,10.50
2019-04-14T17:43:13.191Z,10.20
2019-04-14T17:46:00.942Z,10.20
2019-04-14T17:48:57.327Z,10.10
2019-04-14T17:51:37.170Z,10.00
2019-04-14T17:54:28.620Z,10.10
2019-04-14T17:57:18.562Z,10.00
2019-04-14T18:00:03.078Z,10.20
2019-04-14T18:02:55.257Z,10.10
2019-04-14T18:05:45.710Z,10.00
2019-04-14T18:08:34.976Z,10.00
2019-04-14T18:11:13.084Z,9.90
2019-04-14T18:14:04.951Z,9.80
2019-04-14T18:16:55.319Z,9.80
2019-04-14T18:19:36.233Z,9.80
2019-04-14T18:22:09.356Z,10.00
2019-04-14T18:24:42.972Z,9.90
2019-04-14T18:27:15.439Z,9.90
2019-04-14T18:30:08.456Z,9.80
2019-04-14T18:32:46.574Z,9.90
2019-04-14T18:35:41.175Z,9.90
2019-04-14T18:38:39.001Z,9.90
2019-04-14T18:41:18.088Z,9.80
2019-04-14T18:44:05.351Z,9.70
2019-04-14T18:47:06.239Z,9.70
2019-04-14T18:49:48.107Z,9.60
2019-04-14T18:52:38.648Z,9.50
2019-04-14T18:55:33.468Z,9.40
2019-04-14T18:58:29.715Z,9.40
2019-04-14T19:01:09.172Z,9.60
2019-04-14T19:03:41.313Z,9.60
2019-04-14T19:06:14.098Z,9.80
2019-04-14T19:08:46.370Z,9.70
2019-04-14T19:11:35.788Z,9.60
2019-04-14T19:14:09.260Z,9.60
2019-04-14T19:16:44.674Z,9.60
2019-04-14T19:19:18.288Z,9.50
2019-04-14T19:21:50.973Z,9.60
2019-04-14T19:24:23.372Z,9.70
2019-04-14T19:26:55.999Z,9.70
2019-04-14T19:29:28.863Z,9.50
2019-04-14T19:32:01.389Z,9.50
2019-04-14T19:34:33.671Z,9.30
2019-04-14T19:37:06.451Z,9.30
2019-04-14T19:39:38.662Z,9.20
2019-04-14T19:42:11.761Z,9.20
2019-04-14T19:44:44.132Z,9.40
2019-04-14T19:47:16.507Z,9.40
2019-04-14T19:49:48.791Z,9.30
2019-04-14T19:52:21.175Z,9.40
2019-04-14T19:54:53.559Z,9.40
2019-04-14T19:57:26.005Z,9.40
2019-04-14T19:59:58.480Z,9.30
2019-04-14T20:02:31.160Z,9.30
2019-04-14T20:05:04.006Z,9.10
2019-04-14T20:07:36.366Z,9.20
2019-04-14T20:10:09.521Z,9.20
2019-04-14T20:12:42.128Z,9.20
2019-04-14T20:15:17.839Z,9.30
2019-04-14T20:17:55.719Z,9.20
2019-04-14T20:20:50.338Z,9.20
2019-04-14T20:23:45.258Z,9.10
2019-04-14T20:26:35.178Z,9.00
2019-04-14T20:29:13.104Z,9.20
2019-04-14T20:32:13.917Z,9.20
2019-04-14T20:34:46.326Z,9.00
2019-04-14T20:37:18.516Z,8.90
2019-04-14T20:39:51.258Z,8.90
2019-04-14T20:42:23.832Z,8.80
2019-04-14T20:44:56.090Z,8.80
2019-04-14T20:47:28.361Z,8.80
2019-04-14T20:50:01.185Z,8.90
2019-04-14T20:52:33.762Z,8.90
2019-04-14T20:55:08.359Z,8.70
2019-04-14T20:57:40.719Z,8.60
2019-04-14T21:00:13.100Z,8.70
2019-04-14T21:03:11.209Z,8.70
2019-04-14T21:06:01.762Z,8.60
2019-04-14T21:08:52.202Z,8.60
2019-04-14T21:11:42.057Z,8.60
2019-04-14T21:14:31.894Z,8.60
2019-04-14T21:17:10.924Z,8.60
2019-04-14T21:20:00.067Z,8.50
2019-04-14T21:22:39.639Z,8.60
2019-04-14T21:25:40.554Z,8.50
2019-04-14T21:28:44.763Z,8.40
2019-04-14T21:31:25.292Z,8.40
2019-04-14T21:34:08.382Z,8.20
2019-04-14T21:36:58.596Z,8.20
2019-04-14T21:39:53.499Z,8.30
2019-04-14T21:42:25.916Z,8.40
2019-04-14T21:44:58.359Z,8.20
2019-04-14T21:47:30.821Z,8.20
2019-04-14T21:50:04.331Z,8.10
2019-04-14T21:52:39.327Z,8.10
2019-04-14T21:55:11.862Z,8.10
2019-04-14T21:58:21.874Z,8.10
2019-04-14T22:01:43.735Z,8.20
2019-04-14T22:04:34.274Z,8.20
2019-04-14T22:07:41.533Z,8.00
2019-04-14T22:10:32.280Z,8.10
2019-04-14T22:13:04.816Z,8.00
2019-04-14T22:15:37.330Z,8.00
2019-04-14T22:18:09.706Z,7.90
2019-04-14T22:20:42.189Z,7.90
2019-04-14T22:23:14.855Z,7.90
2019-04-14T22:25:47.157Z,7.90
2019-04-14T22:28:20.066Z,7.90
2019-04-14T22:30:52.818Z,7.90
2019-04-14T22:33:25.443Z,7.80
2019-04-14T22:35:58.212Z,7.80
2019-04-14T22:38:30.617Z,7.70
2019-04-14T22:41:03.204Z,7.70
2019-04-14T22:43:35.477Z,7.60
2019-04-14T22:46:08.082Z,7.60
2019-04-14T22:48:40.425Z,7.60
2019-04-14T22:51:12.766Z,7.70
2019-04-14T22:53:45.030Z,7.60
2019-04-14T22:56:17.249Z,7.60
2019-04-14T22:58:49.702Z,7.50
2019-04-14T23:01:25.934Z,7.50
2019-04-14T23:04:12.855Z,7.50
2019-04-14T23:07:03.336Z,7.50
2019-04-14T23:09:45.806Z,7.50
2019-04-14T23:12:41.110Z,7.50
2019-04-14T23:15:23.245Z,7.50
2019-04-14T23:18:02.673Z,7.40
2019-04-14T23:20:45.414Z,7.50
2019-04-14T23:23:43.011Z,7.40
2019-04-14T23:26:15.306Z,7.30
2019-04-14T23:28:47.560Z,7.40
2019-04-14T23:31:19.929Z,7.30
2019-04-14T23:33:52.288Z,7.20
2019-04-14T23:36:24.914Z,7.30
2019-04-14T23:38:57.250Z,7.30
2019-04-14T23:41:29.608Z,7.20
2019-04-14T23:44:01.907Z,7.10
2019-04-14T23:46:34.040Z,7.20
2019-04-14T23:49:06.252Z,7.20
2019-04-14T23:51:39.056Z,7.10
2019-04-14T23:54:11.387Z,7.00
2019-04-14T23:56:43.832Z,7.00
2019-04-14T23:59:16.149Z,7.00
